sensor_id;sensor_type;location;lat;lon;timestamp;temperature;humidity
66752;SHT31;53663;42.676;23.238;2023-05-29T00:00:14;12.99;83.58
66752;SHT31;53663;42.676;23.238;2023-05-29T00:02:44;12.99;83.67
66752;SHT31;53663;42.676;23.238;2023-05-29T00:05:11;13.01;83.71
66752;SHT31;53663;42.676;23.238;2023-05-29T00:07:38;12.95;83.89
66752;SHT31;53663;42.676;23.238;2023-05-29T00:10:05;12.99;84.02
66752;SHT31;53663;42.676;23.238;2023-05-29T00:12:30;12.95;84.02
66752;SHT31;53663;42.676;23.238;2023-05-29T00:14:56;12.99;84.00
66752;SHT31;53663;42.676;23.238;2023-05-29T00:17:23;12.99;84.10
66752;SHT31;53663;42.676;23.238;2023-05-29T00:19:48;13.05;83.80
66752;SHT31;53663;42.676;23.238;2023-05-29T00:22:14;12.91;83.73
66752;SHT31;53663;42.676;23.238;2023-05-29T00:24:39;12.85;83.99
66752;SHT31;53663;42.676;23.238;2023-05-29T00:27:05;12.98;83.50
66752;SHT31;53663;42.676;23.238;2023-05-29T00:29:31;13.11;83.34
66752;SHT31;53663;42.676;23.238;2023-05-29T00:31:56;13.18;83.35
66752;SHT31;53663;42.676;23.238;2023-05-29T00:34:22;13.22;83.27
66752;SHT31;53663;42.676;23.238;2023-05-29T00:36:51;13.30;83.29
66752;SHT31;53663;42.676;23.238;2023-05-29T00:39:17;13.34;83.32
66752;SHT31;53663;42.676;23.238;2023-05-29T00:41:43;13.42;83.23
66752;SHT31;53663;42.676;23.238;2023-05-29T00:44:08;13.45;83.31
66752;SHT31;53663;42.676;23.238;2023-05-29T00:46:34;13.43;83.32
66752;SHT31;53663;42.676;23.238;2023-05-29T00:49:00;13.49;83.50
66752;SHT31;53663;42.676;23.238;2023-05-29T00:51:28;13.39;83.71
66752;SHT31;53663;42.676;23.238;2023-05-29T00:53:54;13.40;83.83
66752;SHT31;53663;42.676;23.238;2023-05-29T00:56:21;13.32;84.26
66752;SHT31;53663;42.676;23.238;2023-05-29T00:58:49;13.29;84.42
66752;SHT31;53663;42.676;23.238;2023-05-29T01:01:18;13.23;84.37
66752;SHT31;53663;42.676;23.238;2023-05-29T01:03:45;13.20;84.39
66752;SHT31;53663;42.676;23.238;2023-05-29T01:06:11;13.14;84.54
66752;SHT31;53663;42.676;23.238;2023-05-29T01:08:37;13.09;84.47
66752;SHT31;53663;42.676;23.238;2023-05-29T01:13:44;13.02;84.46
66752;SHT31;53663;42.676;23.238;2023-05-29T01:22:12;12.88;84.38
66752;SHT31;53663;42.676;23.238;2023-05-29T01:24:55;12.85;84.56
66752;SHT31;53663;42.676;23.238;2023-05-29T01:27:24;12.85;84.63
66752;SHT31;53663;42.676;23.238;2023-05-29T01:29:52;12.84;84.75
66752;SHT31;53663;42.676;23.238;2023-05-29T01:32:18;12.83;84.62
66752;SHT31;53663;42.676;23.238;2023-05-29T01:34:45;12.77;84.80
66752;SHT31;53663;42.676;23.238;2023-05-29T01:37:10;12.71;84.99
66752;SHT31;53663;42.676;23.238;2023-05-29T01:39:36;12.78;85.06
66752;SHT31;53663;42.676;23.238;2023-05-29T01:42:02;12.77;85.14
66752;SHT31;53663;42.676;23.238;2023-05-29T01:44:29;12.80;85.23
66752;SHT31;53663;42.676;23.238;2023-05-29T01:46:54;12.85;85.21
66752;SHT31;53663;42.676;23.238;2023-05-29T01:49:20;12.98;85.32
66752;SHT31;53663;42.676;23.238;2023-05-29T01:51:46;12.99;85.18
66752;SHT31;53663;42.676;23.238;2023-05-29T01:54:12;13.08;85.26
66752;SHT31;53663;42.676;23.238;2023-05-29T01:56:38;13.20;85.07
66752;SHT31;53663;42.676;23.238;2023-05-29T01:59:04;13.32;84.93
66752;SHT31;53663;42.676;23.238;2023-05-29T02:01:31;13.32;84.76
66752;SHT31;53663;42.676;23.238;2023-05-29T02:03:57;13.35;84.75
66752;SHT31;53663;42.676;23.238;2023-05-29T02:06:22;13.35;84.89
66752;SHT31;53663;42.676;23.238;2023-05-29T02:08:48;13.46;84.85
66752;SHT31;53663;42.676;23.238;2023-05-29T02:11:13;13.47;84.61
66752;SHT31;53663;42.676;23.238;2023-05-29T02:13:39;13.50;84.59
66752;SHT31;53663;42.676;23.238;2023-05-29T02:16:05;13.43;84.56
66752;SHT31;53663;42.676;23.238;2023-05-29T02:18:30;13.39;84.78
66752;SHT31;53663;42.676;23.238;2023-05-29T02:20:56;13.42;85.02
66752;SHT31;53663;42.676;23.238;2023-05-29T02:23:22;13.46;84.82
66752;SHT31;53663;42.676;23.238;2023-05-29T02:25:50;13.42;84.73
66752;SHT31;53663;42.676;23.238;2023-05-29T02:28:15;13.40;84.65
66752;SHT31;53663;42.676;23.238;2023-05-29T02:30:41;13.30;84.57
66752;SHT31;53663;42.676;23.238;2023-05-29T02:33:08;13.23;84.80
66752;SHT31;53663;42.676;23.238;2023-05-29T02:35:34;13.20;84.98
66752;SHT31;53663;42.676;23.238;2023-05-29T02:37:59;13.20;84.75
66752;SHT31;53663;42.676;23.238;2023-05-29T02:40:25;13.12;84.95
66752;SHT31;53663;42.676;23.238;2023-05-29T02:42:50;13.11;84.92
66752;SHT31;53663;42.676;23.238;2023-05-29T02:45:17;13.08;84.83
66752;SHT31;53663;42.676;23.238;2023-05-29T02:47:42;13.02;84.94
66752;SHT31;53663;42.676;23.238;2023-05-29T02:50:08;12.98;85.19
66752;SHT31;53663;42.676;23.238;2023-05-29T02:52:34;12.95;85.23
66752;SHT31;53663;42.676;23.238;2023-05-29T02:55:00;12.94;85.35
66752;SHT31;53663;42.676;23.238;2023-05-29T02:57:25;12.94;85.29
66752;SHT31;53663;42.676;23.238;2023-05-29T02:59:51;12.88;85.42
66752;SHT31;53663;42.676;23.238;2023-05-29T03:02:18;12.94;85.27
66752;SHT31;53663;42.676;23.238;2023-05-29T03:04:44;13.05;85.13
66752;SHT31;53663;42.676;23.238;2023-05-29T03:07:12;13.09;85.16
66752;SHT31;53663;42.676;23.238;2023-05-29T03:09:38;13.16;85.12
66752;SHT31;53663;42.676;23.238;2023-05-29T03:12:04;13.29;85.22
66752;SHT31;53663;42.676;23.238;2023-05-29T03:14:30;13.36;85.13
66752;SHT31;53663;42.676;23.238;2023-05-29T03:17:04;13.49;84.96
66752;SHT31;53663;42.676;23.238;2023-05-29T03:19:31;13.45;84.77
66752;SHT31;53663;42.676;23.238;2023-05-29T03:21:56;13.45;84.57
66752;SHT31;53663;42.676;23.238;2023-05-29T03:24:22;13.39;84.09
66752;SHT31;53663;42.676;23.238;2023-05-29T03:26:49;13.50;83.70
66752;SHT31;53663;42.676;23.238;2023-05-29T03:29:16;13.50;83.82
66752;SHT31;53663;42.676;23.238;2023-05-29T03:31:42;13.49;84.24
66752;SHT31;53663;42.676;23.238;2023-05-29T03:34:07;13.57;84.17
66752;SHT31;53663;42.676;23.238;2023-05-29T03:36:37;13.71;83.96
66752;SHT31;53663;42.676;23.238;2023-05-29T03:39:03;13.80;83.79
66752;SHT31;53663;42.676;23.238;2023-05-29T03:41:29;13.83;83.74
66752;SHT31;53663;42.676;23.238;2023-05-29T03:43:55;13.87;83.79
66752;SHT31;53663;42.676;23.238;2023-05-29T03:46:24;13.93;83.77
66752;SHT31;53663;42.676;23.238;2023-05-29T03:48:49;13.96;83.81
66752;SHT31;53663;42.676;23.238;2023-05-29T03:51:15;14.00;83.82
66752;SHT31;53663;42.676;23.238;2023-05-29T03:53:40;14.10;83.83
66752;SHT31;53663;42.676;23.238;2023-05-29T03:56:07;14.15;83.71
66752;SHT31;53663;42.676;23.238;2023-05-29T03:58:33;14.29;83.05
66752;SHT31;53663;42.676;23.238;2023-05-29T04:00:59;14.34;83.00
66752;SHT31;53663;42.676;23.238;2023-05-29T04:03:27;14.41;82.65
66752;SHT31;53663;42.676;23.238;2023-05-29T04:05:54;14.55;82.06
66752;SHT31;53663;42.676;23.238;2023-05-29T04:08:21;14.61;81.56
66752;SHT31;53663;42.676;23.238;2023-05-29T04:10:46;14.69;81.50
66752;SHT31;53663;42.676;23.238;2023-05-29T04:13:12;14.49;81.75
66752;SHT31;53663;42.676;23.238;2023-05-29T04:15:38;14.51;81.23
66752;SHT31;53663;42.676;23.238;2023-05-29T04:18:03;14.45;81.73
66752;SHT31;53663;42.676;23.238;2023-05-29T04:20:29;14.46;81.33
66752;SHT31;53663;42.676;23.238;2023-05-29T04:22:54;14.63;80.66
66752;SHT31;53663;42.676;23.238;2023-05-29T04:25:21;14.63;80.48
66752;SHT31;53663;42.676;23.238;2023-05-29T04:27:46;14.53;81.89
66752;SHT31;53663;42.676;23.238;2023-05-29T04:30:17;14.56;80.81
66752;SHT31;53663;42.676;23.238;2023-05-29T04:32:46;14.51;81.32
66752;SHT31;53663;42.676;23.238;2023-05-29T04:35:12;14.38;81.91
66752;SHT31;53663;42.676;23.238;2023-05-29T04:37:44;14.58;82.40
66752;SHT31;53663;42.676;23.238;2023-05-29T04:40:10;14.75;81.98
66752;SHT31;53663;42.676;23.238;2023-05-29T04:42:36;14.80;81.68
66752;SHT31;53663;42.676;23.238;2023-05-29T04:45:03;14.75;82.03
66752;SHT31;53663;42.676;23.238;2023-05-29T04:47:34;14.96;81.25
66752;SHT31;53663;42.676;23.238;2023-05-29T04:50:02;14.84;81.45
66752;SHT31;53663;42.676;23.238;2023-05-29T04:52:28;14.86;81.08
66752;SHT31;53663;42.676;23.238;2023-05-29T04:54:54;14.94;80.90
66752;SHT31;53663;42.676;23.238;2023-05-29T04:57:20;14.82;81.56
66752;SHT31;53663;42.676;23.238;2023-05-29T04:59:46;14.90;81.43
66752;SHT31;53663;42.676;23.238;2023-05-29T05:02:11;15.04;81.01
66752;SHT31;53663;42.676;23.238;2023-05-29T05:04:37;15.19;80.71
66752;SHT31;53663;42.676;23.238;2023-05-29T05:07:04;15.20;80.95
66752;SHT31;53663;42.676;23.238;2023-05-29T05:09:30;15.35;80.41
66752;SHT31;53663;42.676;23.238;2023-05-29T05:11:57;15.42;80.18
66752;SHT31;53663;42.676;23.238;2023-05-29T05:14:23;15.47;80.13
66752;SHT31;53663;42.676;23.238;2023-05-29T05:16:48;15.48;80.47
66752;SHT31;53663;42.676;23.238;2023-05-29T05:19:14;15.54;80.63
66752;SHT31;53663;42.676;23.238;2023-05-29T05:21:41;15.65;79.58
66752;SHT31;53663;42.676;23.238;2023-05-29T05:24:07;15.61;79.19
66752;SHT31;53663;42.676;23.238;2023-05-29T05:26:32;15.79;79.20
66752;SHT31;53663;42.676;23.238;2023-05-29T05:28:58;16.02;78.34
66752;SHT31;53663;42.676;23.238;2023-05-29T05:31:27;16.13;77.93
66752;SHT31;53663;42.676;23.238;2023-05-29T05:33:52;16.05;77.64
66752;SHT31;53663;42.676;23.238;2023-05-29T05:36:18;15.99;77.92
66752;SHT31;53663;42.676;23.238;2023-05-29T05:38:44;16.14;77.25
66752;SHT31;53663;42.676;23.238;2023-05-29T05:41:09;16.36;77.40
66752;SHT31;53663;42.676;23.238;2023-05-29T05:43:35;16.54;76.20
66752;SHT31;53663;42.676;23.238;2023-05-29T05:46:18;16.63;75.45
66752;SHT31;53663;42.676;23.238;2023-05-29T05:48:43;16.56;75.30
66752;SHT31;53663;42.676;23.238;2023-05-29T05:51:09;16.63;75.24
66752;SHT31;53663;42.676;23.238;2023-05-29T05:53:36;16.79;75.62
66752;SHT31;53663;42.676;23.238;2023-05-29T05:56:02;16.81;74.83
66752;SHT31;53663;42.676;23.238;2023-05-29T05:58:28;16.98;74.87
66752;SHT31;53663;42.676;23.238;2023-05-29T06:00:55;17.40;73.59
66752;SHT31;53663;42.676;23.238;2023-05-29T06:03:23;17.36;73.70
66752;SHT31;53663;42.676;23.238;2023-05-29T06:05:57;17.12;74.43
66752;SHT31;53663;42.676;23.238;2023-05-29T06:08:23;17.44;73.81
66752;SHT31;53663;42.676;23.238;2023-05-29T06:10:49;17.90;72.65
66752;SHT31;53663;42.676;23.238;2023-05-29T06:13:15;17.91;72.25
66752;SHT31;53663;42.676;23.238;2023-05-29T06:15:47;18.29;72.21
66752;SHT31;53663;42.676;23.238;2023-05-29T06:18:13;18.14;72.08
66752;SHT31;53663;42.676;23.238;2023-05-29T06:20:38;18.53;70.54
66752;SHT31;53663;42.676;23.238;2023-05-29T06:23:04;18.43;70.90
66752;SHT31;53663;42.676;23.238;2023-05-29T06:25:30;18.15;71.07
66752;SHT31;53663;42.676;23.238;2023-05-29T06:27:59;17.94;71.75
66752;SHT31;53663;42.676;23.238;2023-05-29T06:30:26;18.28;71.24
66752;SHT31;53663;42.676;23.238;2023-05-29T06:32:51;18.46;70.25
66752;SHT31;53663;42.676;23.238;2023-05-29T06:35:22;18.32;70.78
66752;SHT31;53663;42.676;23.238;2023-05-29T06:37:47;18.22;70.16
66752;SHT31;53663;42.676;23.238;2023-05-29T06:40:13;18.28;70.57
66752;SHT31;53663;42.676;23.238;2023-05-29T06:42:41;18.39;69.69
66752;SHT31;53663;42.676;23.238;2023-05-29T06:45:13;18.49;69.73
66752;SHT31;53663;42.676;23.238;2023-05-29T06:47:39;18.73;69.21
66752;SHT31;53663;42.676;23.238;2023-05-29T06:50:06;18.98;69.02
66752;SHT31;53663;42.676;23.238;2023-05-29T06:52:32;19.11;68.12
66752;SHT31;53663;42.676;23.238;2023-05-29T06:55:23;19.24;67.63
66752;SHT31;53663;42.676;23.238;2023-05-29T06:57:49;18.91;67.64
66752;SHT31;53663;42.676;23.238;2023-05-29T07:00:15;19.14;67.92
66752;SHT31;53663;42.676;23.238;2023-05-29T07:02:49;19.01;67.51
66752;SHT31;53663;42.676;23.238;2023-05-29T07:05:16;18.69;68.82
66752;SHT31;53663;42.676;23.238;2023-05-29T07:07:42;18.56;68.68
66752;SHT31;53663;42.676;23.238;2023-05-29T07:10:10;18.80;68.70
66752;SHT31;53663;42.676;23.238;2023-05-29T07:12:36;18.93;68.84
66752;SHT31;53663;42.676;23.238;2023-05-29T07:15:01;18.73;69.46
66752;SHT31;53663;42.676;23.238;2023-05-29T07:17:27;19.00;68.87
66752;SHT31;53663;42.676;23.238;2023-05-29T07:20:04;19.17;68.30
66752;SHT31;53663;42.676;23.238;2023-05-29T07:22:34;19.22;67.86
66752;SHT31;53663;42.676;23.238;2023-05-29T07:25:00;19.32;67.23
66752;SHT31;53663;42.676;23.238;2023-05-29T07:27:26;19.52;66.74
66752;SHT31;53663;42.676;23.238;2023-05-29T07:29:51;19.73;66.14
66752;SHT31;53663;42.676;23.238;2023-05-29T07:32:17;19.90;66.40
66752;SHT31;53663;42.676;23.238;2023-05-29T07:34:43;19.94;64.63
66752;SHT31;53663;42.676;23.238;2023-05-29T07:37:09;19.77;65.01
66752;SHT31;53663;42.676;23.238;2023-05-29T07:39:36;19.39;67.04
66752;SHT31;53663;42.676;23.238;2023-05-29T07:42:10;19.59;66.13
66752;SHT31;53663;42.676;23.238;2023-05-29T07:44:37;19.76;65.10
66752;SHT31;53663;42.676;23.238;2023-05-29T07:47:02;20.31;63.60
66752;SHT31;53663;42.676;23.238;2023-05-29T07:49:36;20.44;63.17
66752;SHT31;53663;42.676;23.238;2023-05-29T07:52:02;20.65;62.45
66752;SHT31;53663;42.676;23.238;2023-05-29T07:54:31;20.95;61.75
66752;SHT31;53663;42.676;23.238;2023-05-29T07:56:59;21.03;62.60
66752;SHT31;53663;42.676;23.238;2023-05-29T07:59:25;20.99;62.13
66752;SHT31;53663;42.676;23.238;2023-05-29T08:01:51;20.72;63.67
66752;SHT31;53663;42.676;23.238;2023-05-29T08:04:37;21.14;59.98
66752;SHT31;53663;42.676;23.238;2023-05-29T08:07:03;21.18;60.96
66752;SHT31;53663;42.676;23.238;2023-05-29T08:09:32;21.12;60.30
66752;SHT31;53663;42.676;23.238;2023-05-29T08:11:58;21.07;62.88
66752;SHT31;53663;42.676;23.238;2023-05-29T08:14:26;21.29;62.46
66752;SHT31;53663;42.676;23.238;2023-05-29T08:16:52;21.68;57.61
66752;SHT31;53663;42.676;23.238;2023-05-29T08:19:18;21.77;58.76
66752;SHT31;53663;42.676;23.238;2023-05-29T08:21:43;21.57;58.28
66752;SHT31;53663;42.676;23.238;2023-05-29T08:24:08;21.70;57.05
66752;SHT31;53663;42.676;23.238;2023-05-29T08:26:35;21.85;57.13
66752;SHT31;53663;42.676;23.238;2023-05-29T08:29:01;21.80;56.06
66752;SHT31;53663;42.676;23.238;2023-05-29T08:31:27;21.89;57.21
66752;SHT31;53663;42.676;23.238;2023-05-29T08:33:53;21.62;58.74
66752;SHT31;53663;42.676;23.238;2023-05-29T08:36:19;21.12;58.90
66752;SHT31;53663;42.676;23.238;2023-05-29T08:38:48;21.30;59.16
66752;SHT31;53663;42.676;23.238;2023-05-29T08:41:51;21.14;59.96
66752;SHT31;53663;42.676;23.238;2023-05-29T08:44:22;21.27;58.21
66752;SHT31;53663;42.676;23.238;2023-05-29T08:46:54;21.41;57.01
66752;SHT31;53663;42.676;23.238;2023-05-29T08:49:21;21.29;56.70
66752;SHT31;53663;42.676;23.238;2023-05-29T08:51:49;21.33;57.79
66752;SHT31;53663;42.676;23.238;2023-05-29T08:54:20;21.10;59.08
66752;SHT31;53663;42.676;23.238;2023-05-29T08:56:45;21.54;59.57
66752;SHT31;53663;42.676;23.238;2023-05-29T08:59:11;21.81;57.13
66752;SHT31;53663;42.676;23.238;2023-05-29T09:01:37;21.39;58.69
66752;SHT31;53663;42.676;23.238;2023-05-29T09:04:04;21.55;55.48
66752;SHT31;53663;42.676;23.238;2023-05-29T09:06:30;21.54;56.62
66752;SHT31;53663;42.676;23.238;2023-05-29T09:08:56;21.70;55.80
66752;SHT31;53663;42.676;23.238;2023-05-29T09:11:23;21.74;56.23
66752;SHT31;53663;42.676;23.238;2023-05-29T09:13:49;22.02;55.63
66752;SHT31;53663;42.676;23.238;2023-05-29T09:16:16;22.10;56.33
66752;SHT31;53663;42.676;23.238;2023-05-29T09:18:41;22.28;55.04
66752;SHT31;53663;42.676;23.238;2023-05-29T09:21:15;22.15;54.95
66752;SHT31;53663;42.676;23.238;2023-05-29T09:23:52;22.28;55.58
66752;SHT31;53663;42.676;23.238;2023-05-29T09:26:17;22.45;53.17
66752;SHT31;53663;42.676;23.238;2023-05-29T09:28:45;21.81;52.62
66752;SHT31;53663;42.676;23.238;2023-05-29T09:31:16;21.70;52.01
66752;SHT31;53663;42.676;23.238;2023-05-29T09:33:50;21.98;51.88
66752;SHT31;53663;42.676;23.238;2023-05-29T09:36:22;22.40;51.48
66752;SHT31;53663;42.676;23.238;2023-05-29T09:38:48;22.53;49.07
66752;SHT31;53663;42.676;23.238;2023-05-29T09:41:28;21.94;49.02
66752;SHT31;53663;42.676;23.238;2023-05-29T09:43:56;22.01;49.89
66752;SHT31;53663;42.676;23.238;2023-05-29T09:46:22;22.05;50.70
66752;SHT31;53663;42.676;23.238;2023-05-29T09:48:48;21.67;53.55
66752;SHT31;53663;42.676;23.238;2023-05-29T09:51:21;21.81;52.91
66752;SHT31;53663;42.676;23.238;2023-05-29T09:53:48;22.10;52.42
66752;SHT31;53663;42.676;23.238;2023-05-29T09:56:16;22.30;55.15
66752;SHT31;53663;42.676;23.238;2023-05-29T09:58:44;22.42;53.45
66752;SHT31;53663;42.676;23.238;2023-05-29T10:01:13;22.81;50.38
66752;SHT31;53663;42.676;23.238;2023-05-29T10:03:42;22.95;51.10
66752;SHT31;53663;42.676;23.238;2023-05-29T10:06:15;23.08;49.64
66752;SHT31;53663;42.676;23.238;2023-05-29T10:08:47;23.41;51.01
66752;SHT31;53663;42.676;23.238;2023-05-29T10:11:21;23.49;48.45
66752;SHT31;53663;42.676;23.238;2023-05-29T10:13:51;23.04;51.03
66752;SHT31;53663;42.676;23.238;2023-05-29T10:16:20;22.84;51.61
66752;SHT31;53663;42.676;23.238;2023-05-29T10:18:54;23.26;49.80
66752;SHT31;53663;42.676;23.238;2023-05-29T10:21:21;23.42;47.55
66752;SHT31;53663;42.676;23.238;2023-05-29T10:23:50;22.68;49.70
66752;SHT31;53663;42.676;23.238;2023-05-29T10:26:21;22.76;50.12
66752;SHT31;53663;42.676;23.238;2023-05-29T10:29:15;22.98;49.72
66752;SHT31;53663;42.676;23.238;2023-05-29T10:37:09;23.86;46.62
66752;SHT31;53663;42.676;23.238;2023-05-29T10:39:39;23.73;46.98
66752;SHT31;53663;42.676;23.238;2023-05-29T10:42:40;23.35;47.21
66752;SHT31;53663;42.676;23.238;2023-05-29T10:45:08;22.87;49.28
66752;SHT31;53663;42.676;23.238;2023-05-29T10:47:34;22.87;49.37
66752;SHT31;53663;42.676;23.238;2023-05-29T10:50:03;22.47;50.71
66752;SHT31;53663;42.676;23.238;2023-05-29T10:52:34;22.37;47.69
66752;SHT31;53663;42.676;23.238;2023-05-29T10:55:01;22.30;48.74
66752;SHT31;53663;42.676;23.238;2023-05-29T10:57:29;22.50;47.89
66752;SHT31;53663;42.676;23.238;2023-05-29T11:00:06;23.01;47.97
66752;SHT31;53663;42.676;23.238;2023-05-29T11:02:38;23.37;45.41
66752;SHT31;53663;42.676;23.238;2023-05-29T11:05:19;23.18;48.00
66752;SHT31;53663;42.676;23.238;2023-05-29T11:07:56;22.98;46.17
66752;SHT31;53663;42.676;23.238;2023-05-29T11:10:44;22.36;47.64
66752;SHT31;53663;42.676;23.238;2023-05-29T11:13:22;22.18;48.36
66752;SHT31;53663;42.676;23.238;2023-05-29T11:16:48;22.29;48.29
66752;SHT31;53663;42.676;23.238;2023-05-29T11:18:49;22.19;49.91
66752;SHT31;53663;42.676;23.238;2023-05-29T11:23:51;22.56;47.97
66752;SHT31;53663;42.676;23.238;2023-05-29T11:26:19;22.94;47.10
66752;SHT31;53663;42.676;23.238;2023-05-29T11:28:45;22.77;46.97
66752;SHT31;53663;42.676;23.238;2023-05-29T11:31:12;21.57;52.72
66752;SHT31;53663;42.676;23.238;2023-05-29T11:33:40;21.39;53.71
66752;SHT31;53663;42.676;23.238;2023-05-29T11:36:09;21.37;54.39
66752;SHT31;53663;42.676;23.238;2023-05-29T11:38:36;21.04;54.75
66752;SHT31;53663;42.676;23.238;2023-05-29T11:41:02;21.20;54.58
66752;SHT31;53663;42.676;23.238;2023-05-29T11:43:28;20.91;54.10
66752;SHT31;53663;42.676;23.238;2023-05-29T11:45:54;21.20;53.58
66752;SHT31;53663;42.676;23.238;2023-05-29T11:48:19;21.39;53.53
66752;SHT31;53663;42.676;23.238;2023-05-29T11:50:45;21.18;54.49
66752;SHT31;53663;42.676;23.238;2023-05-29T11:53:11;21.73;53.11
66752;SHT31;53663;42.676;23.238;2023-05-29T11:55:37;21.71;53.44
66752;SHT31;53663;42.676;23.238;2023-05-29T11:58:04;21.44;53.70
66752;SHT31;53663;42.676;23.238;2023-05-29T12:02:59;22.15;52.95
66752;SHT31;53663;42.676;23.238;2023-05-29T12:05:48;22.15;53.61
66752;SHT31;53663;42.676;23.238;2023-05-29T12:08:15;22.55;53.65
66752;SHT31;53663;42.676;23.238;2023-05-29T12:10:48;22.70;52.69
66752;SHT31;53663;42.676;23.238;2023-05-29T12:13:14;22.57;58.98
66752;SHT31;53663;42.676;23.238;2023-05-29T12:15:43;22.13;59.30
66752;SHT31;53663;42.676;23.238;2023-05-29T12:18:09;21.81;59.25
66752;SHT31;53663;42.676;23.238;2023-05-29T12:20:36;21.60;57.75
66752;SHT31;53663;42.676;23.238;2023-05-29T12:23:02;21.02;59.58
66752;SHT31;53663;42.676;23.238;2023-05-29T12:25:28;20.27;63.33
66752;SHT31;53663;42.676;23.238;2023-05-29T12:27:55;19.82;65.71
66752;SHT31;53663;42.676;23.238;2023-05-29T12:30:22;19.56;66.77
66752;SHT31;53663;42.676;23.238;2023-05-29T12:32:49;19.21;68.73
66752;SHT31;53663;42.676;23.238;2023-05-29T12:35:17;18.84;69.59
66752;SHT31;53663;42.676;23.238;2023-05-29T12:37:48;18.05;72.08
66752;SHT31;53663;42.676;23.238;2023-05-29T12:40:19;18.12;74.55
66752;SHT31;53663;42.676;23.238;2023-05-29T12:42:46;17.91;75.68
66752;SHT31;53663;42.676;23.238;2023-05-29T12:45:13;17.97;74.75
66752;SHT31;53663;42.676;23.238;2023-05-29T12:47:50;18.05;76.74
66752;SHT31;53663;42.676;23.238;2023-05-29T12:52:58;17.54;76.88
66752;SHT31;53663;42.676;23.238;2023-05-29T12:55:24;17.30;76.71
66752;SHT31;53663;42.676;23.238;2023-05-29T12:57:50;17.56;77.69
66752;SHT31;53663;42.676;23.238;2023-05-29T13:00:17;17.59;76.38
66752;SHT31;53663;42.676;23.238;2023-05-29T13:02:44;17.39;76.35
66752;SHT31;53663;42.676;23.238;2023-05-29T13:05:09;17.47;78.33
66752;SHT31;53663;42.676;23.238;2023-05-29T13:07:35;17.70;77.08
66752;SHT31;53663;42.676;23.238;2023-05-29T13:10:00;17.97;76.74
66752;SHT31;53663;42.676;23.238;2023-05-29T13:12:27;18.16;77.52
66752;SHT31;53663;42.676;23.238;2023-05-29T13:14:52;18.35;71.78
66752;SHT31;53663;42.676;23.238;2023-05-29T13:17:21;18.26;74.40
66752;SHT31;53663;42.676;23.238;2023-05-29T13:19:46;18.12;76.83
66752;SHT31;53663;42.676;23.238;2023-05-29T13:22:12;18.52;73.33
66752;SHT31;53663;42.676;23.238;2023-05-29T13:24:37;18.55;72.96
66752;SHT31;53663;42.676;23.238;2023-05-29T13:27:04;18.91;70.23
66752;SHT31;53663;42.676;23.238;2023-05-29T13:29:31;19.45;71.38
66752;SHT31;53663;42.676;23.238;2023-05-29T13:31:56;19.72;67.38
66752;SHT31;53663;42.676;23.238;2023-05-29T13:34:22;19.93;64.95
66752;SHT31;53663;42.676;23.238;2023-05-29T13:36:50;20.06;64.27
66752;SHT31;53663;42.676;23.238;2023-05-29T13:39:16;20.25;66.96
66752;SHT31;53663;42.676;23.238;2023-05-29T13:41:42;20.38;63.96
66752;SHT31;53663;42.676;23.238;2023-05-29T13:44:07;20.52;63.64
66752;SHT31;53663;42.676;23.238;2023-05-29T13:46:33;20.74;65.85
66752;SHT31;53663;42.676;23.238;2023-05-29T13:48:58;20.64;64.57
66752;SHT31;53663;42.676;23.238;2023-05-29T13:51:24;20.54;61.53
66752;SHT31;53663;42.676;23.238;2023-05-29T13:53:49;20.14;61.98
66752;SHT31;53663;42.676;23.238;2023-05-29T13:56:15;20.38;59.57
66752;SHT31;53663;42.676;23.238;2023-05-29T13:58:40;20.41;63.13
66752;SHT31;53663;42.676;23.238;2023-05-29T14:01:05;20.52;64.90
66752;SHT31;53663;42.676;23.238;2023-05-29T14:03:31;20.52;59.59
66752;SHT31;53663;42.676;23.238;2023-05-29T14:05:57;20.59;62.95
66752;SHT31;53663;42.676;23.238;2023-05-29T14:08:23;20.82;58.48
66752;SHT31;53663;42.676;23.238;2023-05-29T14:10:48;20.78;59.57
66752;SHT31;53663;42.676;23.238;2023-05-29T14:13:16;20.93;59.50
66752;SHT31;53663;42.676;23.238;2023-05-29T14:15:41;20.76;60.97
66752;SHT31;53663;42.676;23.238;2023-05-29T14:18:07;20.33;62.75
66752;SHT31;53663;42.676;23.238;2023-05-29T14:20:33;20.34;60.64
66752;SHT31;53663;42.676;23.238;2023-05-29T14:22:59;20.01;57.91
66752;SHT31;53663;42.676;23.238;2023-05-29T14:25:24;19.87;59.56
66752;SHT31;53663;42.676;23.238;2023-05-29T14:27:50;19.75;59.10
66752;SHT31;53663;42.676;23.238;2023-05-29T14:30:17;19.68;59.48
66752;SHT31;53663;42.676;23.238;2023-05-29T14:32:42;19.55;60.95
66752;SHT31;53663;42.676;23.238;2023-05-29T14:35:09;19.48;60.31
66752;SHT31;53663;42.676;23.238;2023-05-29T14:37:34;19.62;62.17
66752;SHT31;53663;42.676;23.238;2023-05-29T14:40:01;19.49;60.45
66752;SHT31;53663;42.676;23.238;2023-05-29T14:42:26;19.15;60.85
66752;SHT31;53663;42.676;23.238;2023-05-29T14:44:52;19.28;62.01
66752;SHT31;53663;42.676;23.238;2023-05-29T14:47:18;19.27;61.96
66752;SHT31;53663;42.676;23.238;2023-05-29T14:49:44;19.15;60.54
66752;SHT31;53663;42.676;23.238;2023-05-29T14:52:09;19.25;61.40
66752;SHT31;53663;42.676;23.238;2023-05-29T14:54:35;19.28;61.33
66752;SHT31;53663;42.676;23.238;2023-05-29T14:57:00;19.01;62.57
66752;SHT31;53663;42.676;23.238;2023-05-29T14:59:26;18.80;63.84
66752;SHT31;53663;42.676;23.238;2023-05-29T15:01:51;19.01;63.72
66752;SHT31;53663;42.676;23.238;2023-05-29T15:04:19;19.11;62.75
66752;SHT31;53663;42.676;23.238;2023-05-29T15:06:44;19.21;63.49
66752;SHT31;53663;42.676;23.238;2023-05-29T15:09:10;18.87;63.61
66752;SHT31;53663;42.676;23.238;2023-05-29T15:11:36;18.84;65.04
66752;SHT31;53663;42.676;23.238;2023-05-29T15:14:01;18.94;64.62
66752;SHT31;53663;42.676;23.238;2023-05-29T15:16:27;18.90;64.59
66752;SHT31;53663;42.676;23.238;2023-05-29T15:18:52;19.12;63.73
66752;SHT31;53663;42.676;23.238;2023-05-29T15:21:18;19.04;64.07
66752;SHT31;53663;42.676;23.238;2023-05-29T15:23:43;18.97;64.33
66752;SHT31;53663;42.676;23.238;2023-05-29T15:26:09;19.01;65.24
66752;SHT31;53663;42.676;23.238;2023-05-29T15:28:35;19.08;65.48
66752;SHT31;53663;42.676;23.238;2023-05-29T15:31:01;19.17;65.58
66752;SHT31;53663;42.676;23.238;2023-05-29T15:33:27;19.17;66.03
66752;SHT31;53663;42.676;23.238;2023-05-29T15:35:52;19.22;64.56
66752;SHT31;53663;42.676;23.238;2023-05-29T15:38:18;19.18;63.64